createdAt,value
2022-10-11T00:00:28.544Z,30.36
2022-10-11T00:03:13.317Z,30.65
2022-10-11T00:05:57.594Z,30.83
2022-10-11T00:08:43.373Z,30.93
2022-10-11T00:11:27.813Z,31.00
2022-10-11T00:14:14.219Z,31.06
2022-10-11T00:16:58.463Z,31.21
2022-10-11T00:19:56.272Z,31.29
2022-10-11T00:22:45.992Z,31.36
2022-10-11T00:25:29.970Z,31.46
2022-10-11T00:28:18.844Z,31.53
2022-10-11T00:31:09.448Z,31.65
2022-10-11T00:33:54.959Z,31.70
2022-10-11T00:36:38.890Z,31.76
2022-10-11T00:39:25.279Z,31.83
2022-10-11T00:42:20.923Z,31.92
2022-10-11T00:45:30.016Z,31.98
2022-10-11T00:48:31.474Z,31.99
2022-10-11T00:51:41.119Z,32.04
2022-10-11T00:54:33.142Z,32.07
2022-10-11T00:57:26.560Z,32.09
2022-10-11T01:00:14.039Z,32.17
2022-10-11T01:02:59.132Z,32.24
2022-10-11T01:05:43.606Z,32.30
2022-10-11T01:08:30.141Z,32.32
2022-10-11T01:11:17.659Z,32.37
2022-10-11T01:14:36.385Z,32.46
2022-10-11T01:17:24.944Z,32.51
2022-10-11T01:20:43.930Z,32.54
2022-10-11T01:23:48.627Z,32.58
2022-10-11T01:26:51.175Z,32.58
2022-10-11T01:30:26.378Z,32.66
2022-10-11T01:33:51.798Z,32.67
2022-10-11T01:36:50.506Z,32.71
2022-10-11T01:39:59.908Z,32.80
2022-10-11T01:42:44.881Z,32.78
2022-10-11T01:45:29.510Z,32.86
2022-10-11T01:48:15.862Z,32.91
2022-10-11T01:51:00.849Z,32.97
2022-10-11T01:54:56.577Z,32.83
2022-10-11T01:58:11.749Z,32.74
2022-10-11T02:01:24.333Z,32.67
2022-10-11T02:04:28.876Z,32.64
2022-10-11T02:07:41.575Z,32.65
2022-10-11T02:11:00.878Z,32.84
2022-10-11T02:13:53.754Z,32.95
2022-10-11T02:16:56.902Z,33.05
2022-10-11T02:19:53.222Z,33.10
2022-10-11T02:22:47.888Z,33.18
2022-10-11T02:25:36.268Z,33.23
2022-10-11T02:28:23.889Z,33.26
2022-10-11T02:31:09.255Z,33.39
2022-10-11T02:34:00.967Z,33.46
2022-10-11T02:37:16.089Z,33.53
2022-10-11T02:40:08.633Z,33.64
2022-10-11T02:43:01.687Z,33.75
2022-10-11T02:46:00.759Z,33.81
2022-10-11T02:48:44.044Z,33.83
2022-10-11T02:51:32.489Z,33.89
2022-10-11T02:54:19.868Z,33.94
2022-10-11T02:57:07.968Z,33.96
2022-10-11T02:59:52.081Z,34.03
2022-10-11T03:02:40.891Z,34.06
2022-10-11T03:05:25.057Z,34.11
2022-10-11T03:08:14.614Z,34.14
2022-10-11T03:10:59.133Z,34.18
2022-10-11T03:13:49.160Z,34.20
2022-10-11T03:16:38.009Z,34.23
2022-10-11T03:19:23.697Z,34.26
2022-10-11T03:22:06.432Z,34.28
2022-10-11T03:24:50.670Z,34.34
2022-10-11T03:27:35.556Z,34.37
2022-10-11T03:30:21.068Z,34.40
2022-10-11T03:33:05.940Z,34.44
2022-10-11T03:35:51.455Z,34.47
2022-10-11T03:38:36.439Z,34.50
2022-10-11T03:41:21.665Z,34.51
2022-10-11T03:44:09.042Z,34.56
2022-10-11T03:46:52.921Z,34.53
2022-10-11T03:49:38.840Z,34.58
2022-10-11T03:52:27.707Z,34.63
2022-10-11T03:55:12.056Z,34.61
2022-10-11T03:57:54.056Z,34.66
2022-10-11T04:00:37.962Z,34.71
2022-10-11T04:03:23.333Z,34.75
2022-10-11T04:06:09.522Z,34.76
2022-10-11T04:08:53.465Z,34.77
2022-10-11T04:11:39.850Z,34.81
2022-10-11T04:14:24.611Z,34.88
2022-10-11T04:17:09.714Z,34.86
2022-10-11T04:19:53.238Z,34.89
2022-10-11T04:22:39.440Z,34.95
2022-10-11T04:25:24.229Z,34.98
2022-10-11T04:28:10.298Z,35.04
2022-10-11T04:30:54.575Z,35.07
2022-10-11T04:33:39.800Z,35.06
2022-10-11T04:36:25.017Z,35.14
2022-10-11T04:39:09.861Z,35.06
2022-10-11T04:41:53.913Z,35.24
2022-10-11T04:44:38.276Z,35.17
2022-10-11T04:47:23.705Z,35.23
2022-10-11T04:50:09.359Z,35.27
2022-10-11T04:52:53.767Z,35.28
2022-10-11T04:55:39.224Z,35.41
2022-10-11T04:58:23.602Z,35.47
2022-10-11T05:01:10.522Z,35.50
2022-10-11T05:03:58.064Z,35.53
2022-10-11T05:06:41.101Z,35.59
2022-10-11T05:09:26.672Z,35.46
2022-10-11T05:12:10.945Z,35.56
2022-10-11T05:14:57.535Z,35.53
2022-10-11T05:17:41.087Z,35.57
2022-10-11T05:20:24.734Z,35.59
2022-10-11T05:23:12.347Z,35.58
2022-10-11T05:25:58.385Z,35.67
2022-10-11T05:28:42.831Z,35.76
2022-10-11T05:31:27.370Z,35.81
2022-10-11T05:34:10.511Z,35.95
2022-10-11T05:36:55.336Z,36.01
2022-10-11T05:39:41.327Z,35.96
2022-10-11T05:42:26.105Z,35.91
2022-10-11T05:45:10.738Z,35.94
2022-10-11T05:47:56.428Z,35.91
2022-10-11T05:50:43.356Z,35.95
2022-10-11T05:53:29.195Z,35.83
2022-10-11T05:56:22.813Z,35.86
2022-10-11T05:59:08.271Z,35.82
2022-10-11T06:01:53.369Z,35.84
2022-10-11T06:04:41.522Z,35.69
2022-10-11T06:07:25.617Z,35.65
2022-10-11T06:10:11.847Z,35.66
2022-10-11T06:13:00.415Z,35.61
2022-10-11T06:16:00.039Z,35.57
2022-10-11T06:19:00.283Z,35.53
2022-10-11T06:22:13.343Z,35.42
2022-10-11T06:25:20.778Z,35.46
2022-10-11T06:28:21.524Z,35.38
2022-10-11T06:31:25.537Z,35.32
2022-10-11T06:34:22.994Z,35.32
2022-10-11T06:37:29.026Z,35.27
2022-10-11T06:40:28.438Z,35.26
2022-10-11T06:43:30.717Z,35.25
2022-10-11T06:46:58.633Z,35.26
2022-10-11T06:49:59.200Z,35.24
2022-10-11T06:52:59.072Z,35.27
2022-10-11T06:55:56.696Z,35.27
2022-10-11T06:59:01.755Z,35.20
2022-10-11T07:02:03.564Z,35.17
2022-10-11T07:04:59.546Z,35.15
2022-10-11T07:07:59.306Z,35.18
2022-10-11T07:11:27.653Z,35.13
2022-10-11T07:14:24.915Z,35.08
2022-10-11T07:17:37.275Z,35.00
2022-10-11T07:20:52.236Z,35.02
2022-10-11T07:24:22.518Z,34.95
2022-10-11T07:27:24.655Z,34.96
2022-10-11T07:30:22.905Z,34.94
2022-10-11T07:33:29.308Z,34.85
2022-10-11T07:36:30.327Z,34.82
2022-10-11T07:39:29.763Z,34.86
2022-10-11T07:42:35.883Z,34.85
2022-10-11T07:45:35.411Z,34.78
2022-10-11T07:48:43.154Z,34.74
2022-10-11T07:51:43.900Z,34.76
2022-10-11T07:54:42.338Z,34.81
2022-10-11T07:57:39.256Z,34.79
2022-10-11T08:00:37.096Z,34.75
2022-10-11T08:03:40.974Z,34.77
2022-10-11T08:06:41.672Z,34.68
2022-10-11T08:09:47.137Z,34.62
2022-10-11T08:12:45.032Z,34.59
2022-10-11T08:15:53.647Z,34.59
2022-10-11T08:18:56.395Z,34.53
2022-10-11T08:21:57.122Z,34.45
2022-10-11T08:25:06.337Z,34.42
2022-10-11T08:28:06.803Z,34.37
2022-10-11T08:31:19.582Z,34.36
2022-10-11T08:34:28.847Z,34.30
2022-10-11T08:37:29.646Z,34.30
2022-10-11T08:40:35.413Z,34.30
2022-10-11T08:43:48.591Z,34.28
2022-10-11T08:47:05.917Z,34.22
2022-10-11T08:49:57.296Z,34.16
2022-10-11T08:52:57.547Z,34.13
2022-10-11T08:55:55.019Z,34.13
2022-10-11T08:59:17.226Z,34.08
2022-10-11T09:02:38.949Z,33.98
2022-10-11T09:05:44.132Z,33.91
2022-10-11T09:09:01.977Z,33.94
2022-10-11T09:12:20.344Z,33.92
2022-10-11T09:15:17.390Z,33.93
2022-10-11T09:18:35.697Z,34.00
2022-10-11T09:21:49.081Z,33.97
2022-10-11T09:24:39.171Z,33.92
2022-10-11T09:28:02.239Z,33.93
2022-10-11T09:30:54.765Z,33.82
2022-10-11T09:33:52.089Z,33.79
2022-10-11T09:37:19.422Z,33.78
2022-10-11T09:40:21.995Z,33.76
2022-10-11T09:43:12.655Z,33.69
2022-10-11T09:46:02.595Z,33.65
2022-10-11T09:48:55.446Z,33.64
2022-10-11T09:51:51.341Z,33.57
2022-10-11T09:54:46.105Z,33.55
2022-10-11T09:57:39.852Z,33.48
2022-10-11T10:00:34.659Z,33.51
2022-10-11T10:03:39.407Z,33.50
2022-10-11T10:06:29.745Z,33.52
2022-10-11T10:09:29.732Z,33.48
2022-10-11T10:12:29.068Z,33.45
2022-10-11T10:15:22.589Z,33.35
2022-10-11T10:18:24.968Z,33.47
2022-10-11T10:21:17.061Z,33.47
2022-10-11T10:24:38.144Z,33.57
2022-10-11T10:27:30.509Z,33.49
2022-10-11T10:30:21.731Z,33.38
2022-10-11T10:33:14.402Z,33.39
2022-10-11T10:36:17.978Z,33.32
2022-10-11T10:39:27.234Z,33.31
2022-10-11T10:42:19.567Z,33.32
2022-10-11T10:45:21.802Z,33.30
2022-10-11T10:49:01.731Z,33.27
2022-10-11T10:51:55.240Z,33.20
2022-10-11T10:54:56.058Z,33.19
2022-10-11T10:58:15.146Z,33.18
2022-10-11T11:01:28.402Z,33.17
2022-10-11T11:04:24.312Z,33.09
2022-10-11T11:07:39.975Z,33.13
2022-10-11T11:10:55.783Z,33.07
2022-10-11T11:14:14.553Z,33.13
2022-10-11T11:17:27.093Z,33.18
2022-10-11T11:20:30.431Z,33.13
2022-10-11T11:23:24.748Z,33.13
2022-10-11T11:26:44.172Z,33.16
2022-10-11T11:29:55.740Z,33.10
2022-10-11T11:33:03.909Z,33.08
2022-10-11T11:35:58.588Z,33.04
2022-10-11T11:39:09.219Z,33.04
2022-10-11T11:42:15.895Z,32.98
2022-10-11T11:45:15.072Z,32.98
2022-10-11T11:48:08.780Z,32.97
2022-10-11T11:51:05.970Z,32.97
2022-10-11T11:54:06.106Z,32.95
2022-10-11T11:57:17.139Z,32.95
2022-10-11T12:00:22.894Z,32.94
2022-10-11T12:03:17.209Z,32.82
2022-10-11T12:06:16.206Z,32.97
2022-10-11T12:09:24.809Z,33.10
2022-10-11T12:12:38.311Z,33.15
2022-10-11T12:15:28.370Z,33.19
2022-10-11T12:18:19.174Z,33.21
2022-10-11T12:21:41.061Z,33.25
2022-10-11T12:24:55.372Z,33.24
2022-10-11T12:27:49.619Z,33.28
2022-10-11T12:30:52.285Z,33.32
2022-10-11T12:33:43.099Z,33.31
2022-10-11T12:36:41.422Z,33.34
2022-10-11T12:39:50.446Z,33.40
2022-10-11T12:42:42.263Z,33.38
2022-10-11T12:45:34.605Z,33.39
2022-10-11T12:48:50.913Z,33.40
2022-10-11T12:52:01.803Z,33.42
2022-10-11T12:55:00.808Z,33.41
2022-10-11T12:58:24.863Z,33.38
2022-10-11T13:01:19.593Z,33.33
2022-10-11T13:04:12.816Z,33.34
2022-10-11T13:07:08.557Z,33.37
2022-10-11T13:09:59.470Z,33.36
2022-10-11T13:12:50.240Z,33.34
2022-10-11T13:15:43.807Z,33.38
2022-10-11T13:18:34.071Z,33.35
2022-10-11T13:21:30.971Z,33.33
2022-10-11T13:24:22.728Z,33.30
2022-10-11T13:27:27.568Z,33.37
2022-10-11T13:30:26.450Z,33.38
2022-10-11T13:33:39.933Z,33.41
2022-10-11T13:36:30.974Z,33.39
2022-10-11T13:39:31.426Z,33.34
2022-10-11T13:42:27.199Z,33.32
2022-10-11T13:45:28.259Z,33.28
2022-10-11T13:48:19.209Z,33.24
2022-10-11T13:51:34.624Z,33.22
2022-10-11T13:54:25.516Z,33.20
2022-10-11T13:57:16.077Z,33.18
2022-10-11T14:00:20.822Z,33.15
2022-10-11T14:03:17.491Z,33.06
2022-10-11T14:06:08.197Z,33.07
2022-10-11T14:09:00.427Z,33.07
2022-10-11T14:11:51.274Z,33.02
2022-10-11T14:14:43.875Z,32.93
2022-10-11T14:17:47.887Z,32.85
2022-10-11T14:20:41.975Z,32.76
2022-10-11T14:23:32.333Z,32.72
2022-10-11T14:26:24.011Z,32.64
2022-10-11T14:29:31.120Z,32.57
2022-10-11T14:32:32.198Z,32.44
2022-10-11T14:35:33.243Z,32.36
2022-10-11T14:38:23.746Z,32.25
2022-10-11T14:41:14.116Z,32.28
2022-10-11T14:44:04.341Z,32.27
2022-10-11T14:46:54.991Z,32.21
2022-10-11T14:49:45.507Z,32.22
2022-10-11T14:52:38.039Z,32.17
2022-10-11T14:55:28.732Z,32.12
2022-10-11T14:58:19.033Z,32.10
2022-10-11T15:01:11.351Z,32.12
2022-10-11T15:04:01.709Z,32.06
2022-10-11T15:06:52.156Z,32.03
2022-10-11T15:09:42.692Z,31.99
2022-10-11T15:12:32.875Z,31.95
2022-10-11T15:15:27.026Z,31.95
2022-10-11T15:18:18.571Z,31.94
2022-10-11T15:21:08.953Z,31.93
2022-10-11T15:24:02.013Z,31.86
2022-10-11T15:26:52.059Z,31.87
2022-10-11T15:29:42.020Z,31.88
2022-10-11T15:32:31.938Z,31.87
2022-10-11T15:35:24.442Z,31.84
2022-10-11T15:38:32.127Z,31.76
2022-10-11T15:41:22.302Z,31.74
2022-10-11T15:44:11.863Z,31.78
2022-10-11T15:47:01.843Z,31.80
2022-10-11T15:49:51.244Z,31.77
2022-10-11T15:52:40.967Z,31.74
2022-10-11T15:55:32.034Z,31.73
2022-10-11T15:58:26.149Z,31.73
2022-10-11T16:01:20.952Z,31.72
2022-10-11T16:04:11.260Z,31.72
2022-10-11T16:07:00.760Z,31.71
2022-10-11T16:09:50.343Z,31.70
2022-10-11T16:12:39.650Z,31.70
2022-10-11T16:15:29.146Z,31.63
2022-10-11T16:18:21.967Z,31.63
2022-10-11T16:21:31.642Z,31.63
2022-10-11T16:24:21.302Z,31.57
2022-10-11T16:27:18.583Z,31.58
2022-10-11T16:30:08.929Z,31.49
2022-10-11T16:33:05.709Z,31.50
2022-10-11T16:36:15.554Z,31.51
2022-10-11T16:39:22.250Z,31.48
2022-10-11T16:42:11.900Z,31.42
2022-10-11T16:45:02.201Z,31.43
2022-10-11T16:47:51.936Z,31.41
2022-10-11T16:50:41.428Z,31.40
2022-10-11T16:53:31.028Z,31.37
2022-10-11T16:56:23.515Z,31.43
2022-10-11T16:59:13.308Z,31.40
2022-10-11T17:02:03.325Z,31.41
2022-10-11T17:04:57.634Z,31.34
2022-10-11T17:07:49.948Z,31.30
2022-10-11T17:10:45.312Z,31.36
2022-10-11T17:13:35.874Z,31.32
2022-10-11T17:16:25.202Z,31.30
2022-10-11T17:19:16.678Z,31.30
2022-10-11T17:22:06.340Z,31.27
2022-10-11T17:24:55.768Z,31.29
2022-10-11T17:27:45.236Z,31.27
2022-10-11T17:30:34.946Z,31.26
2022-10-11T17:33:24.592Z,31.21
2022-10-11T17:36:17.562Z,31.12
2022-10-11T17:39:11.025Z,31.11
2022-10-11T17:42:05.886Z,31.05
2022-10-11T17:44:55.282Z,31.05
2022-10-11T17:47:44.468Z,31.07
2022-10-11T17:50:36.289Z,31.01
2022-10-11T17:53:27.033Z,31.03
2022-10-11T17:56:20.253Z,30.97
2022-10-11T17:59:22.172Z,30.90
2022-10-11T18:02:11.876Z,30.85
2022-10-11T18:05:04.281Z,30.85
2022-10-11T18:07:56.983Z,30.75
2022-10-11T18:10:47.744Z,30.73
2022-10-11T18:13:43.577Z,30.70
2022-10-11T18:16:35.723Z,30.78
2022-10-11T18:19:25.308Z,30.73
2022-10-11T18:22:15.978Z,30.71
2022-10-11T18:25:08.544Z,30.69
2022-10-11T18:27:58.046Z,30.66
2022-10-11T18:30:49.275Z,30.66
2022-10-11T18:33:39.134Z,30.64
2022-10-11T18:36:30.715Z,30.58
2022-10-11T18:39:22.276Z,30.58
2022-10-11T18:42:11.516Z,30.59
2022-10-11T18:45:01.424Z,30.55
2022-10-11T18:47:53.982Z,30.54
2022-10-11T18:50:45.785Z,30.54
2022-10-11T18:53:41.110Z,30.48
2022-10-11T18:56:31.735Z,30.49
2022-10-11T18:59:21.316Z,30.44
2022-10-11T19:02:13.944Z,30.46
2022-10-11T19:05:03.224Z,30.40
2022-10-11T19:07:53.303Z,30.39
2022-10-11T19:10:45.514Z,30.34
2022-10-11T19:13:36.033Z,30.38
2022-10-11T19:16:26.864Z,30.33
2022-10-11T19:19:16.902Z,30.32
2022-10-11T19:22:07.137Z,30.32
2022-10-11T19:24:56.300Z,30.33
2022-10-11T19:27:45.973Z,30.30
2022-10-11T19:30:35.021Z,30.26
2022-10-11T19:33:24.955Z,30.24
2022-10-11T19:36:17.897Z,30.22
2022-10-11T19:39:07.899Z,30.28
2022-10-11T19:41:57.419Z,30.26
2022-10-11T19:44:47.261Z,30.19
2022-10-11T19:47:42.246Z,30.24
2022-10-11T19:50:33.086Z,30.19
2022-10-11T19:53:21.784Z,30.18
2022-10-11T19:56:14.477Z,30.14
2022-10-11T19:59:04.711Z,30.15
2022-10-11T20:01:54.916Z,30.14
2022-10-11T20:04:52.445Z,30.13
2022-10-11T20:07:42.116Z,30.16
2022-10-11T20:10:31.220Z,30.14
2022-10-11T20:13:20.565Z,30.10
2022-10-11T20:16:12.795Z,30.11
2022-10-11T20:19:03.056Z,30.12
2022-10-11T20:22:14.787Z,30.09
2022-10-11T20:25:04.734Z,30.04
2022-10-11T20:27:54.891Z,30.03
2022-10-11T20:30:45.009Z,30.02
2022-10-11T20:33:34.729Z,30.01
2022-10-11T20:36:24.900Z,29.95
2022-10-11T20:39:14.695Z,29.98
2022-10-11T20:42:04.371Z,30.00
2022-10-11T20:44:53.893Z,29.94
2022-10-11T20:47:43.273Z,29.92
2022-10-11T20:50:32.555Z,29.92
2022-10-11T20:53:24.738Z,29.95
2022-10-11T20:56:15.541Z,29.95
2022-10-11T20:59:05.226Z,29.90
2022-10-11T21:01:54.303Z,29.87
2022-10-11T21:04:45.072Z,29.91
2022-10-11T21:07:34.859Z,29.86
2022-10-11T21:10:24.564Z,29.88
2022-10-11T21:13:14.957Z,29.85
2022-10-11T21:16:15.502Z,29.91
2022-10-11T21:19:05.697Z,29.87
2022-10-11T21:21:55.718Z,29.87
2022-10-11T21:24:45.208Z,29.85
2022-10-11T21:27:34.679Z,29.83
2022-10-11T21:30:24.286Z,29.83
2022-10-11T21:33:13.347Z,29.82
2022-10-11T21:36:10.945Z,29.79
2022-10-11T21:39:00.678Z,29.80
2022-10-11T21:41:50.212Z,29.78
2022-10-11T21:44:44.757Z,29.74
2022-10-11T21:47:39.198Z,29.72
2022-10-11T21:50:29.910Z,29.79
2022-10-11T21:53:19.167Z,29.77
2022-10-11T21:56:09.643Z,29.78
2022-10-11T21:58:59.353Z,29.74
2022-10-11T22:01:48.502Z,29.81
2022-10-11T22:04:37.996Z,29.78
2022-10-11T22:07:27.182Z,29.75
2022-10-11T22:10:16.597Z,29.78
2022-10-11T22:13:06.373Z,29.83
2022-10-11T22:15:57.297Z,29.75
2022-10-11T22:18:46.814Z,29.78
2022-10-11T22:21:36.049Z,29.79
2022-10-11T22:24:25.443Z,29.78
2022-10-11T22:27:14.822Z,29.81
2022-10-11T22:30:04.355Z,29.78
2022-10-11T22:32:53.459Z,29.82
2022-10-11T22:35:45.461Z,29.78
2022-10-11T22:38:38.071Z,29.81
2022-10-11T22:41:27.227Z,29.81
2022-10-11T22:44:17.681Z,29.76
2022-10-11T22:47:07.924Z,29.77
2022-10-11T22:49:57.988Z,29.83
2022-10-11T22:52:47.779Z,29.81
2022-10-11T22:55:37.767Z,29.83
2022-10-11T22:58:44.669Z,29.81
2022-10-11T23:01:37.072Z,29.84
2022-10-11T23:04:26.258Z,29.88
2022-10-11T23:07:16.953Z,29.89
2022-10-11T23:10:07.124Z,29.90
2022-10-11T23:12:56.734Z,29.92
2022-10-11T23:15:45.913Z,29.91
2022-10-11T23:18:35.693Z,29.96
2022-10-11T23:21:24.967Z,29.94
2022-10-11T23:24:14.605Z,29.93
2022-10-11T23:27:07.496Z,29.97
2022-10-11T23:29:56.470Z,29.99
2022-10-11T23:32:45.618Z,29.98
2022-10-11T23:35:38.280Z,29.90
2022-10-11T23:38:30.069Z,29.96
2022-10-11T23:41:22.878Z,30.00
2022-10-11T23:44:13.273Z,29.99
2022-10-11T23:47:03.136Z,30.07
2022-10-11T23:49:53.735Z,29.98
2022-10-11T23:52:43.891Z,30.10
2022-10-11T23:55:38.145Z,30.12
2022-10-11T23:58:27.258Z,30.14
